createdAt,value
2022-07-31T00:00:23.024Z,76616.47
2022-07-31T00:02:49.686Z,76614.47
2022-07-31T00:05:16.706Z,76622.44
2022-07-31T00:07:43.402Z,76624.41
2022-07-31T00:10:10.224Z,76626.41
2022-07-31T00:12:36.848Z,76628.38
2022-07-31T00:15:06.395Z,76622.44
2022-07-31T00:17:33.502Z,76634.34
2022-07-31T00:20:00.079Z,76636.34
2022-07-31T00:22:26.631Z,76638.31
2022-07-31T00:24:53.203Z,76640.31
2022-07-31T00:27:19.796Z,76638.31
2022-07-31T00:29:46.597Z,76648.25
2022-07-31T00:32:13.204Z,76648.25
2022-07-31T00:34:39.780Z,76650.25
2022-07-31T00:37:06.791Z,76648.25
2022-07-31T00:39:33.539Z,76650.25
2022-07-31T00:42:00.134Z,76654.22
2022-07-31T00:44:26.698Z,76670.13
2022-07-31T00:46:53.267Z,76664.16
2022-07-31T00:49:20.144Z,76670.13
2022-07-31T00:51:48.119Z,76666.16
2022-07-31T00:54:22.301Z,76674.09
2022-07-31T00:56:50.552Z,76684.03
2022-07-31T00:59:24.289Z,76697.94
2022-07-31T01:01:51.721Z,76690.00
2022-07-31T01:04:19.891Z,76697.94
2022-07-31T01:06:47.399Z,76664.16
2022-07-31T01:09:15.086Z,76684.03
2022-07-31T01:11:47.508Z,76680.06
2022-07-31T01:14:15.536Z,76670.13
2022-07-31T01:16:47.375Z,76697.94
2022-07-31T01:19:41.769Z,76723.78
2022-07-31T01:22:33.949Z,76729.75
2022-07-31T01:25:32.419Z,76735.69
2022-07-31T01:28:24.632Z,76747.63
2022-07-31T01:31:10.687Z,76755.56
2022-07-31T01:33:48.531Z,76761.53
2022-07-31T01:36:20.175Z,76775.44
2022-07-31T01:38:51.359Z,76785.38
2022-07-31T01:41:24.828Z,76793.34
2022-07-31T01:43:55.288Z,76777.44
2022-07-31T01:46:24.819Z,76789.34
2022-07-31T01:48:54.651Z,76785.38
2022-07-31T01:51:23.671Z,76785.38
2022-07-31T01:53:51.416Z,76787.38
2022-07-31T01:56:19.301Z,76785.38
2022-07-31T01:58:47.384Z,76801.28
2022-07-31T02:01:15.025Z,76781.41
2022-07-31T02:03:45.445Z,76787.38
2022-07-31T02:06:16.130Z,76801.28
2022-07-31T02:08:46.358Z,76791.34
2022-07-31T02:11:16.050Z,76799.28
2022-07-31T02:13:44.610Z,76793.34
2022-07-31T02:16:12.277Z,76795.31
2022-07-31T02:18:40.263Z,76795.31
2022-07-31T02:21:06.923Z,76789.34
2022-07-31T02:23:34.100Z,76807.25
2022-07-31T02:26:03.238Z,76803.25
2022-07-31T02:28:32.236Z,76809.22
2022-07-31T02:31:01.338Z,76781.41
2022-07-31T02:33:29.451Z,76785.38
2022-07-31T02:35:56.596Z,76787.38
2022-07-31T02:38:26.566Z,76769.47
2022-07-31T02:40:59.237Z,76773.47
2022-07-31T02:43:26.787Z,76791.34
2022-07-31T02:45:55.749Z,76797.31
2022-07-31T02:48:23.739Z,76789.34
2022-07-31T02:50:50.582Z,76803.25
2022-07-31T02:53:17.408Z,76805.25
2022-07-31T02:55:47.252Z,76805.25
2022-07-31T02:58:14.423Z,76825.13
2022-07-31T03:00:41.372Z,76821.16
2022-07-31T03:03:08.007Z,76823.13
2022-07-31T03:05:34.624Z,76813.19
2022-07-31T03:08:01.208Z,76813.19
2022-07-31T03:10:27.984Z,76805.25
2022-07-31T03:12:55.660Z,76809.22
2022-07-31T03:15:26.575Z,76809.22
2022-07-31T03:17:54.748Z,76807.25
2022-07-31T03:20:22.040Z,76825.13
2022-07-31T03:22:48.700Z,76809.22
2022-07-31T03:25:21.152Z,76817.19
2022-07-31T03:27:55.937Z,76815.19
2022-07-31T03:30:27.263Z,76807.25
2022-07-31T03:32:55.411Z,76795.31
2022-07-31T03:35:24.058Z,76799.28
2022-07-31T03:37:51.603Z,76815.19
2022-07-31T03:40:18.451Z,76813.19
2022-07-31T03:42:46.162Z,76789.34
2022-07-31T03:45:13.587Z,76775.44
2022-07-31T03:47:40.549Z,76791.34
2022-07-31T03:50:08.930Z,76779.41
2022-07-31T03:52:36.987Z,76799.28
2022-07-31T03:55:04.105Z,76799.28
2022-07-31T03:57:34.086Z,76779.41
2022-07-31T04:00:03.057Z,76779.41
2022-07-31T04:02:30.285Z,76759.53
2022-07-31T04:04:58.528Z,76761.53
2022-07-31T04:07:25.047Z,76751.59
2022-07-31T04:09:51.867Z,76747.63
2022-07-31T04:12:18.579Z,76769.47
2022-07-31T04:14:45.139Z,76791.34
2022-07-31T04:17:12.840Z,76799.28
2022-07-31T04:19:39.544Z,76769.47
2022-07-31T04:22:07.009Z,76741.66
2022-07-31T04:24:33.970Z,76771.47
2022-07-31T04:27:00.728Z,76781.41
2022-07-31T04:29:30.413Z,76791.34
2022-07-31T04:31:57.102Z,76761.53
2022-07-31T04:34:23.767Z,76751.59
2022-07-31T04:36:50.429Z,76739.66
2022-07-31T04:39:17.166Z,76731.72
2022-07-31T04:41:44.358Z,76729.75
2022-07-31T04:44:10.900Z,76719.81
2022-07-31T04:46:37.626Z,76719.81
2022-07-31T04:49:04.446Z,76713.84
2022-07-31T04:51:31.040Z,76713.84
2022-07-31T04:53:57.563Z,76705.88
2022-07-31T04:56:37.509Z,76701.91
2022-07-31T04:59:10.119Z,76697.94
2022-07-31T05:01:37.272Z,76686.00
2022-07-31T05:04:04.839Z,76678.06
2022-07-31T05:06:34.638Z,76672.09
2022-07-31T05:09:08.100Z,76642.28
2022-07-31T05:11:36.414Z,76640.31
2022-07-31T05:14:05.236Z,76646.28
2022-07-31T05:16:33.703Z,76608.50
2022-07-31T05:19:01.306Z,76622.44
2022-07-31T05:21:28.467Z,76620.44
2022-07-31T05:23:55.569Z,76614.47
2022-07-31T05:26:22.768Z,76608.50
2022-07-31T05:28:56.470Z,76590.63
2022-07-31T05:31:24.734Z,76590.63
2022-07-31T05:33:51.876Z,76584.66
2022-07-31T05:36:19.712Z,76576.72
2022-07-31T05:38:46.759Z,76544.94
2022-07-31T05:41:13.815Z,76525.06
2022-07-31T05:43:40.709Z,76519.09
2022-07-31T05:46:07.602Z,76501.22
2022-07-31T05:48:34.315Z,76497.22
2022-07-31T05:51:05.383Z,76481.34
2022-07-31T05:53:32.171Z,76467.44
2022-07-31T05:55:58.716Z,76433.66
2022-07-31T05:58:25.256Z,76433.66
2022-07-31T06:00:51.791Z,76409.81
2022-07-31T06:03:27.986Z,76395.91
2022-07-31T06:05:55.435Z,76380.00
2022-07-31T06:08:22.688Z,76387.94
2022-07-31T06:10:49.435Z,76391.91
2022-07-31T06:13:15.990Z,76381.97
2022-07-31T06:15:49.412Z,76370.06
2022-07-31T06:18:16.222Z,76362.09
2022-07-31T06:20:42.758Z,76342.25
2022-07-31T06:23:22.556Z,76320.38
2022-07-31T06:25:49.779Z,76320.38
2022-07-31T06:28:16.702Z,76312.44
2022-07-31T06:30:44.149Z,76292.56
2022-07-31T06:33:17.282Z,76290.56
2022-07-31T06:35:57.143Z,76296.53
2022-07-31T06:38:24.486Z,76266.72
2022-07-31T06:40:51.556Z,76262.75
2022-07-31T06:43:18.645Z,76252.81
2022-07-31T06:45:52.239Z,76248.84
2022-07-31T06:48:19.126Z,76223.03
2022-07-31T06:50:45.789Z,76219.03
2022-07-31T06:53:12.345Z,76205.13
2022-07-31T06:55:42.611Z,76175.34
2022-07-31T06:58:11.538Z,76157.44
2022-07-31T07:00:38.550Z,76149.50
2022-07-31T07:03:05.030Z,76149.50
2022-07-31T07:05:31.531Z,76141.56
2022-07-31T07:07:58.010Z,76131.63
2022-07-31T07:10:24.726Z,76129.63
2022-07-31T07:12:51.483Z,76125.66
2022-07-31T07:15:20.611Z,76105.78
2022-07-31T07:17:47.088Z,76083.94
2022-07-31T07:20:13.897Z,76070.03
2022-07-31T07:22:40.523Z,76048.16
2022-07-31T07:25:07.371Z,76044.19
2022-07-31T07:27:33.840Z,76036.25
2022-07-31T07:30:00.670Z,76022.34
2022-07-31T07:32:27.215Z,76002.47
2022-07-31T07:34:59.510Z,75984.59
2022-07-31T07:37:27.488Z,75960.75
2022-07-31T07:39:54.053Z,75960.75
2022-07-31T07:42:20.571Z,75926.97
2022-07-31T07:44:47.120Z,75921.00
2022-07-31T07:47:13.692Z,75915.06
2022-07-31T07:49:40.181Z,75905.13
2022-07-31T07:52:06.700Z,75893.19
2022-07-31T07:54:33.248Z,75883.25
2022-07-31T07:56:59.921Z,75873.31
2022-07-31T07:59:26.496Z,75863.41
2022-07-31T08:01:53.024Z,75859.41
2022-07-31T08:04:19.625Z,75849.50
2022-07-31T08:06:46.152Z,75851.47
2022-07-31T08:09:12.699Z,75825.66
2022-07-31T08:11:39.312Z,75807.75
2022-07-31T08:14:05.859Z,75783.94
2022-07-31T08:16:32.686Z,75762.06
2022-07-31T08:18:59.327Z,75768.03
2022-07-31T08:21:25.911Z,75742.19
2022-07-31T08:23:52.863Z,75724.31
2022-07-31T08:26:19.398Z,75704.47
2022-07-31T08:28:49.787Z,75702.47
2022-07-31T08:31:17.623Z,75682.59
2022-07-31T08:33:44.166Z,75674.66
2022-07-31T08:36:10.731Z,75652.81
2022-07-31T08:38:37.314Z,75632.94
2022-07-31T08:41:04.141Z,75619.03
2022-07-31T08:44:03.026Z,75617.03
2022-07-31T08:46:19.088Z,75617.03
2022-07-31T08:48:46.309Z,75585.25
2022-07-31T08:51:13.751Z,75579.31
2022-07-31T08:53:43.850Z,75579.31
2022-07-31T08:56:11.396Z,75585.25
2022-07-31T08:58:39.918Z,75581.28
2022-07-31T09:01:08.614Z,75587.25
2022-07-31T09:03:36.172Z,75571.34
2022-07-31T09:06:03.619Z,75553.47
2022-07-31T09:08:34.531Z,75543.53
2022-07-31T09:11:02.908Z,75539.56
2022-07-31T09:13:34.741Z,75517.72
2022-07-31T09:16:02.208Z,75481.97
2022-07-31T09:18:28.802Z,75462.09
2022-07-31T09:20:56.426Z,75458.13
2022-07-31T09:23:24.160Z,75440.25
2022-07-31T09:26:05.835Z,75416.41
2022-07-31T09:28:33.123Z,75410.44
2022-07-31T09:31:00.356Z,75396.53
2022-07-31T09:33:29.610Z,75378.66
2022-07-31T09:35:57.317Z,75362.75
2022-07-31T09:38:32.310Z,75338.94
2022-07-31T09:41:56.524Z,75340.91
2022-07-31T09:44:10.371Z,75354.81
2022-07-31T09:46:46.504Z,75332.97
2022-07-31T09:49:13.581Z,75332.97
2022-07-31T09:51:41.925Z,75315.09
2022-07-31T09:54:19.272Z,75287.28
2022-07-31T09:56:46.870Z,75243.59
2022-07-31T09:59:13.551Z,75241.59
2022-07-31T10:01:41.361Z,75223.72
2022-07-31T10:04:10.517Z,75213.78
2022-07-31T10:06:39.012Z,75235.63
2022-07-31T10:09:06.461Z,75199.88
2022-07-31T10:11:33.627Z,75197.91
2022-07-31T10:14:02.297Z,75197.91
2022-07-31T10:16:36.312Z,75205.84
2022-07-31T10:19:11.311Z,75227.69
2022-07-31T10:21:42.218Z,75187.97
2022-07-31T10:24:10.675Z,75152.22
2022-07-31T10:27:10.337Z,75120.44
2022-07-31T10:29:39.278Z,75130.34
2022-07-31T10:32:07.535Z,75180.00
2022-07-31T10:34:35.452Z,75162.13
2022-07-31T10:37:23.028Z,75144.25
2022-07-31T10:40:01.369Z,75122.41
2022-07-31T10:42:36.884Z,75076.72
2022-07-31T10:45:11.190Z,75052.88
2022-07-31T10:47:38.406Z,75019.13
2022-07-31T10:50:05.988Z,75035.00
2022-07-31T10:52:41.422Z,75037.00
2022-07-31T10:55:16.188Z,75037.00
2022-07-31T10:57:56.726Z,75042.97
2022-07-31T11:00:28.218Z,75017.13
2022-07-31T11:02:56.582Z,74969.47
2022-07-31T11:05:23.712Z,74961.53
2022-07-31T11:08:04.883Z,74931.72
2022-07-31T11:10:34.295Z,74973.44
2022-07-31T11:13:05.867Z,74957.56
2022-07-31T11:15:35.062Z,74959.53
2022-07-31T11:18:25.169Z,74981.38
2022-07-31T11:21:17.760Z,74973.44
2022-07-31T11:23:56.471Z,74997.28
2022-07-31T11:26:33.727Z,75062.81
2022-07-31T11:30:01.488Z,75096.59
2022-07-31T11:32:00.963Z,75104.53
2022-07-31T11:34:27.795Z,75166.09
2022-07-31T11:36:54.706Z,75182.00
2022-07-31T11:39:34.986Z,75168.09
2022-07-31T11:42:04.774Z,75144.25
2022-07-31T11:44:45.394Z,75166.09
2022-07-31T11:48:10.114Z,75128.38
2022-07-31T11:50:14.829Z,75124.41
2022-07-31T11:52:45.077Z,75086.66
2022-07-31T11:58:11.083Z,75116.44
2022-07-31T12:00:38.318Z,75124.41
2022-07-31T12:03:08.468Z,75144.25
2022-07-31T12:05:44.169Z,75152.22
2022-07-31T12:08:11.788Z,75126.38
2022-07-31T12:10:48.963Z,75092.63
2022-07-31T12:13:20.604Z,75050.91
2022-07-31T12:16:04.293Z,75029.06
2022-07-31T12:18:45.462Z,75019.13
2022-07-31T12:21:12.347Z,75011.19
2022-07-31T12:23:42.071Z,74971.44
2022-07-31T12:26:12.478Z,74929.75
2022-07-31T12:28:39.440Z,74862.22
2022-07-31T12:31:05.993Z,74860.22
2022-07-31T12:33:43.072Z,74886.03
2022-07-31T12:36:23.396Z,74894.00
2022-07-31T12:39:04.491Z,74894.00
2022-07-31T12:41:40.802Z,74903.91
2022-07-31T12:44:36.732Z,74931.72
2022-07-31T12:47:03.590Z,74925.78
2022-07-31T12:49:30.442Z,74913.84
2022-07-31T12:51:57.079Z,74937.69
2022-07-31T12:54:24.188Z,74963.50
2022-07-31T12:56:50.673Z,74983.38
2022-07-31T12:59:17.167Z,74983.38
2022-07-31T13:01:44.066Z,75017.13
2022-07-31T13:04:18.744Z,74995.28
2022-07-31T13:06:48.645Z,75013.16
2022-07-31T13:09:15.731Z,74999.25
2022-07-31T13:11:46.717Z,74987.34
2022-07-31T13:14:19.356Z,75007.22
2022-07-31T13:16:47.616Z,75040.97
2022-07-31T13:19:15.157Z,75029.06
2022-07-31T13:21:49.492Z,74993.31
2022-07-31T13:24:18.218Z,74973.44
2022-07-31T13:26:45.549Z,74943.66
2022-07-31T13:29:12.692Z,74890.00
2022-07-31T13:31:39.599Z,74838.38
2022-07-31T13:34:06.661Z,74828.44
2022-07-31T13:36:38.788Z,74854.25
2022-07-31T13:39:07.080Z,74937.69
2022-07-31T13:41:35.501Z,74963.50
2022-07-31T13:44:02.511Z,74945.63
2022-07-31T13:46:29.291Z,74925.78
2022-07-31T13:48:58.882Z,74945.63
2022-07-31T13:51:28.658Z,74921.78
2022-07-31T13:53:55.727Z,74917.81
2022-07-31T13:56:39.679Z,74933.72
2022-07-31T13:59:09.271Z,74913.84
2022-07-31T14:02:02.207Z,74949.59
2022-07-31T14:04:23.506Z,74933.72
2022-07-31T14:06:51.051Z,74874.13
2022-07-31T14:09:19.023Z,74844.34
2022-07-31T14:11:45.738Z,74822.50
2022-07-31T14:14:12.330Z,74818.50
2022-07-31T14:16:39.371Z,74764.88
2022-07-31T14:19:06.024Z,74752.97
2022-07-31T14:21:34.319Z,74687.44
2022-07-31T14:24:00.837Z,74701.34
2022-07-31T14:26:27.415Z,74721.19
2022-07-31T14:28:54.173Z,74691.41
2022-07-31T14:31:23.362Z,74717.22
2022-07-31T14:33:49.868Z,74743.03
2022-07-31T14:36:16.461Z,74739.06
2022-07-31T14:38:43.114Z,74721.19
2022-07-31T14:41:13.338Z,74697.38
2022-07-31T14:43:40.064Z,74691.41
2022-07-31T14:46:07.027Z,74723.19
2022-07-31T14:48:33.663Z,74788.72
2022-07-31T14:51:00.289Z,74808.59
2022-07-31T14:53:43.369Z,74776.81
2022-07-31T14:56:09.883Z,74526.56
2022-07-31T14:58:57.224Z,74242.56
2022-07-31T15:01:23.061Z,73984.44
2022-07-31T15:03:53.319Z,73855.38
2022-07-31T15:06:51.001Z,73771.97
2022-07-31T15:09:07.828Z,73746.16
2022-07-31T15:11:58.276Z,73710.41
2022-07-31T15:14:20.921Z,73666.72
2022-07-31T15:16:49.674Z,73654.81
2022-07-31T15:19:16.498Z,73654.81
2022-07-31T15:22:10.902Z,73746.16
2022-07-31T15:24:33.238Z,73891.09
2022-07-31T15:26:59.769Z,73920.88
2022-07-31T15:29:26.373Z,73918.91
2022-07-31T15:32:12.869Z,74121.44
2022-07-31T15:34:39.595Z,74163.16
2022-07-31T15:37:07.584Z,74155.19
2022-07-31T15:39:34.510Z,74171.09
2022-07-31T15:42:02.055Z,74194.91
2022-07-31T15:44:29.091Z,74276.34
2022-07-31T15:46:55.728Z,74369.66
2022-07-31T15:49:22.294Z,74609.97
2022-07-31T15:51:48.902Z,74647.72
2022-07-31T15:54:15.467Z,74699.34
2022-07-31T15:56:42.023Z,74719.22
2022-07-31T15:59:08.561Z,74766.88
2022-07-31T16:01:35.144Z,74796.66
2022-07-31T16:04:02.992Z,74828.44
2022-07-31T16:06:43.944Z,74848.31
2022-07-31T16:09:16.313Z,74860.22
2022-07-31T16:12:04.280Z,74886.03
2022-07-31T16:14:29.451Z,74909.88
2022-07-31T16:16:56.836Z,74913.84
2022-07-31T16:19:25.108Z,74903.91
2022-07-31T16:21:55.019Z,74897.97
2022-07-31T16:24:22.955Z,74870.16
2022-07-31T16:26:50.180Z,74870.16
2022-07-31T16:29:17.797Z,74820.50
2022-07-31T16:32:04.015Z,74814.53
2022-07-31T16:34:30.611Z,74824.47
2022-07-31T16:36:57.151Z,74806.59
2022-07-31T16:39:23.960Z,74806.59
2022-07-31T16:41:54.411Z,74818.50
2022-07-31T16:44:21.755Z,74794.69
2022-07-31T16:46:52.769Z,74826.47
2022-07-31T16:49:35.724Z,74818.50
2022-07-31T16:52:05.169Z,74838.38
2022-07-31T16:54:31.679Z,74850.28
2022-07-31T16:56:58.311Z,74842.34
2022-07-31T16:59:24.843Z,74882.06
2022-07-31T17:01:57.041Z,74892.00
2022-07-31T17:04:27.352Z,74864.19
2022-07-31T17:06:54.029Z,74860.22
2022-07-31T17:09:20.768Z,74864.19
2022-07-31T17:11:49.865Z,74884.06
2022-07-31T17:14:22.013Z,74844.34
2022-07-31T17:16:50.269Z,74834.41
2022-07-31T17:19:41.813Z,74846.31
2022-07-31T17:22:30.270Z,74866.19
2022-07-31T17:24:57.120Z,74878.09
2022-07-31T17:27:24.849Z,74882.06
2022-07-31T17:29:51.467Z,74886.03
2022-07-31T17:32:18.023Z,74903.91
2022-07-31T17:34:45.869Z,74903.91
2022-07-31T17:37:12.836Z,74895.97
2022-07-31T17:39:40.046Z,74921.78
2022-07-31T17:45:20.721Z,74959.53
2022-07-31T17:47:48.867Z,74977.41
2022-07-31T17:50:30.173Z,75007.22
2022-07-31T17:52:56.749Z,75023.09
2022-07-31T17:55:23.264Z,75056.88
2022-07-31T17:57:49.837Z,75076.72
2022-07-31T18:00:17.924Z,75100.56
2022-07-31T18:02:44.619Z,75112.47
2022-07-31T18:05:11.365Z,75126.38
2022-07-31T18:07:38.931Z,75142.28
2022-07-31T18:10:09.097Z,75158.16
2022-07-31T18:12:40.370Z,75172.06
2022-07-31T18:15:22.595Z,75176.03
2022-07-31T18:18:01.681Z,75185.97
2022-07-31T18:20:28.283Z,75191.94
2022-07-31T18:22:54.904Z,75197.91
2022-07-31T18:25:21.453Z,75195.91
2022-07-31T18:27:50.369Z,75211.78
2022-07-31T18:30:16.939Z,75219.75
2022-07-31T18:32:44.060Z,75233.66
2022-07-31T18:35:10.679Z,75239.59
2022-07-31T18:37:37.267Z,75243.59
2022-07-31T18:40:06.095Z,75253.50
2022-07-31T18:42:32.633Z,75255.50
2022-07-31T18:44:59.568Z,75271.38
2022-07-31T18:47:26.668Z,75273.38
2022-07-31T18:50:58.100Z,75281.31
2022-07-31T18:52:39.911Z,75287.28
2022-07-31T18:55:07.052Z,75295.22
2022-07-31T18:57:33.592Z,75301.19
2022-07-31T19:00:00.161Z,75307.16
2022-07-31T19:02:28.125Z,75313.09
2022-07-31T19:04:54.783Z,75323.03
2022-07-31T19:07:21.453Z,75334.97
2022-07-31T19:09:48.127Z,75334.97
2022-07-31T19:12:15.172Z,75346.88
2022-07-31T19:14:42.174Z,75350.84
2022-07-31T19:17:08.855Z,75360.78
2022-07-31T19:19:52.740Z,75368.72
2022-07-31T19:22:21.973Z,75370.72
2022-07-31T19:24:49.515Z,75372.69
2022-07-31T19:27:16.626Z,75376.69
2022-07-31T19:29:43.228Z,75378.66
2022-07-31T19:32:09.847Z,75392.56
2022-07-31T19:34:36.354Z,75390.56
2022-07-31T19:37:03.006Z,75394.56
2022-07-31T19:39:30.204Z,75402.50
2022-07-31T19:42:10.745Z,75418.38
2022-07-31T19:44:39.462Z,75426.34
2022-07-31T19:47:06.417Z,75430.31
2022-07-31T19:49:37.864Z,75424.34
2022-07-31T19:52:05.818Z,75422.34
2022-07-31T19:54:32.711Z,75420.38
2022-07-31T19:56:59.279Z,75420.38
2022-07-31T19:59:25.903Z,75418.38
2022-07-31T20:01:52.518Z,75424.34
2022-07-31T20:04:19.250Z,75422.34
2022-07-31T20:06:45.723Z,75428.31
2022-07-31T20:09:12.341Z,75436.28
2022-07-31T20:11:39.632Z,75444.22
2022-07-31T20:14:06.305Z,75460.09
2022-07-31T20:16:36.167Z,75462.09
2022-07-31T20:19:02.940Z,75474.00
2022-07-31T20:21:32.492Z,75479.97
2022-07-31T20:24:02.894Z,75481.97
2022-07-31T20:26:31.482Z,75485.94
2022-07-31T20:28:58.010Z,75485.94
2022-07-31T20:31:24.550Z,75481.97
2022-07-31T20:33:57.561Z,75481.97
2022-07-31T20:36:26.087Z,75487.91
2022-07-31T20:38:52.718Z,75487.91
2022-07-31T20:41:19.251Z,75483.94
2022-07-31T20:43:45.814Z,75485.94
2022-07-31T20:46:12.383Z,75491.88
2022-07-31T20:48:38.987Z,75489.91
2022-07-31T20:51:09.086Z,75493.88
2022-07-31T20:53:35.707Z,75499.84
2022-07-31T20:56:02.227Z,75499.84
2022-07-31T20:58:29.099Z,75503.81
2022-07-31T21:00:55.909Z,75503.81
2022-07-31T21:03:23.074Z,75513.75
2022-07-31T21:05:49.626Z,75519.69
2022-07-31T21:08:16.591Z,75525.66
2022-07-31T21:10:43.251Z,75529.63
2022-07-31T21:13:09.958Z,75531.63
2022-07-31T21:15:43.914Z,75527.66
2022-07-31T21:18:12.001Z,75521.69
2022-07-31T21:20:50.807Z,75527.66
2022-07-31T21:23:21.589Z,75529.63
2022-07-31T21:25:48.552Z,75537.59
2022-07-31T21:28:15.332Z,75533.59
2022-07-31T21:30:43.136Z,75525.66
2022-07-31T21:33:10.426Z,75525.66
2022-07-31T21:35:39.207Z,75521.69
2022-07-31T21:38:10.118Z,75525.66
2022-07-31T21:40:39.365Z,75525.66
2022-07-31T21:43:06.244Z,75529.63
2022-07-31T21:45:50.264Z,75525.66
2022-07-31T21:48:22.322Z,75523.69
2022-07-31T21:50:49.061Z,75521.69
2022-07-31T21:53:15.705Z,75521.69
2022-07-31T21:55:42.385Z,75521.69
2022-07-31T21:58:09.810Z,75517.72
2022-07-31T22:00:36.871Z,75521.69
2022-07-31T22:03:04.554Z,75517.72
2022-07-31T22:05:49.729Z,75513.75
2022-07-31T22:08:16.836Z,75505.78
2022-07-31T22:10:43.440Z,75503.81
2022-07-31T22:13:10.257Z,75513.75
2022-07-31T22:15:51.481Z,75505.78
2022-07-31T22:18:23.635Z,75509.78
2022-07-31T22:20:53.612Z,75499.84
2022-07-31T22:23:20.759Z,75507.78
2022-07-31T22:25:49.124Z,75509.78
2022-07-31T22:28:19.032Z,75519.69
2022-07-31T22:30:46.168Z,75521.69
2022-07-31T22:33:12.878Z,75519.69
2022-07-31T22:35:44.037Z,75525.66
2022-07-31T22:38:13.791Z,75515.72
2022-07-31T22:40:42.622Z,75515.72
2022-07-31T22:44:11.286Z,75525.66
2022-07-31T22:46:21.286Z,75509.78
2022-07-31T22:48:48.137Z,75531.63
2022-07-31T22:51:15.535Z,75531.63
2022-07-31T22:53:43.329Z,75517.72
2022-07-31T22:56:09.959Z,75517.72
2022-07-31T22:58:48.293Z,75505.78
2022-07-31T23:01:14.851Z,75517.72
2022-07-31T23:03:41.422Z,75529.63
2022-07-31T23:06:30.670Z,75517.72
2022-07-31T23:08:55.362Z,75505.78
2022-07-31T23:11:23.167Z,75501.81
2022-07-31T23:13:49.843Z,75515.72
2022-07-31T23:16:16.429Z,75525.66
2022-07-31T23:18:44.474Z,75533.59
2022-07-31T23:21:10.990Z,75535.59
2022-07-31T23:23:37.686Z,75553.47
2022-07-31T23:26:04.240Z,75563.41
2022-07-31T23:28:30.767Z,75561.41
2022-07-31T23:30:57.354Z,75561.41
2022-07-31T23:33:26.348Z,75571.34
2022-07-31T23:35:53.592Z,75583.28
2022-07-31T23:38:20.098Z,75591.22
2022-07-31T23:40:46.603Z,75599.16
2022-07-31T23:43:14.161Z,75593.22
2022-07-31T23:45:42.801Z,75589.22
2022-07-31T23:48:10.684Z,75593.22
2022-07-31T23:50:41.756Z,75605.13
2022-07-31T23:53:08.343Z,75597.19
2022-07-31T23:55:35.332Z,75597.19
2022-07-31T23:58:05.825Z,75587.25
